createdAt,value
2019-01-17T17:29:50.229Z,975.54
2019-01-17T17:30:50.174Z,975.54
2019-01-17T17:31:50.162Z,975.59
2019-01-17T17:32:50.155Z,975.58
2019-01-17T17:33:50.143Z,975.51
2019-01-17T17:34:50.127Z,975.57
2019-01-17T17:35:50.133Z,975.56
2019-01-17T17:36:50.115Z,975.57
2019-01-17T17:37:50.101Z,975.61
2019-01-17T17:38:50.116Z,975.54
2019-01-17T17:39:50.117Z,975.58
2019-01-17T17:40:50.075Z,975.68
2019-01-17T17:41:50.111Z,975.60
2019-01-17T17:42:50.072Z,975.55
2019-01-17T17:43:50.050Z,975.65
2019-01-17T17:44:50.089Z,975.70
2019-01-17T17:45:50.025Z,975.64
2019-01-17T17:46:50.069Z,975.71
2019-01-17T17:47:50.035Z,975.70
2019-01-17T17:48:49.986Z,975.66
2019-01-17T17:49:49.980Z,975.78
2019-01-17T17:50:49.975Z,975.74
2019-01-17T17:51:50.011Z,975.76
2019-01-17T17:52:49.964Z,975.72
2019-01-17T17:53:49.948Z,975.76
2019-01-17T17:54:49.923Z,975.84
2019-01-17T17:55:49.948Z,975.87
2019-01-17T17:56:49.904Z,975.74
2019-01-17T17:57:50.707Z,975.70
2019-01-17T17:58:49.881Z,975.85
2019-01-17T17:59:49.910Z,975.90
2019-01-17T18:00:57.401Z,975.92
2019-01-17T18:01:49.852Z,975.82
2019-01-17T18:02:49.836Z,975.85
2019-01-17T18:03:49.830Z,975.87
2019-01-17T18:04:49.839Z,975.89
2019-01-17T18:05:49.817Z,975.94
2019-01-17T18:06:49.792Z,975.94
2019-01-17T18:07:49.793Z,975.92
2019-01-17T18:08:49.775Z,975.95
2019-01-17T18:09:49.769Z,975.89
2019-01-17T18:10:49.754Z,975.91
2019-01-17T18:11:49.766Z,975.98
2019-01-17T18:12:49.728Z,975.99
2019-01-17T18:13:49.728Z,976.04
2019-01-17T18:14:49.757Z,975.99
2019-01-17T18:15:49.700Z,975.97
2019-01-17T18:16:49.699Z,975.97
2019-01-17T18:17:49.696Z,976.02
2019-01-17T18:18:49.670Z,975.99
2019-01-17T18:19:49.661Z,975.99
2019-01-17T18:20:49.648Z,976.02
2019-01-17T18:21:49.635Z,976.09
2019-01-17T18:22:49.632Z,975.96
2019-01-17T18:23:49.638Z,976.03
2019-01-17T18:24:49.619Z,975.97
2019-01-17T18:25:49.598Z,975.92
2019-01-17T18:26:49.584Z,975.99
2019-01-17T18:27:49.578Z,976.00
2019-01-17T18:28:49.564Z,976.01
2019-01-17T18:29:49.575Z,976.03
2019-01-17T18:30:49.564Z,976.03
2019-01-17T18:31:49.535Z,976.09
2019-01-17T18:32:49.529Z,976.10
2019-01-17T18:33:49.509Z,976.05
2019-01-17T18:34:49.509Z,976.05
2019-01-17T18:35:49.515Z,976.08
2019-01-17T18:36:49.481Z,976.05
2019-01-17T18:37:49.477Z,976.12
2019-01-17T18:38:49.461Z,976.19
2019-01-17T18:39:49.453Z,976.22
2019-01-17T18:40:49.442Z,976.21
2019-01-17T18:41:49.439Z,976.26
2019-01-17T18:42:49.421Z,976.23
2019-01-17T18:43:49.410Z,976.18
2019-01-17T18:44:49.402Z,976.22
2019-01-17T18:45:49.384Z,976.18
2019-01-17T18:46:49.378Z,976.21
2019-01-17T18:47:49.385Z,976.22
2019-01-17T18:48:49.369Z,976.30
2019-01-17T18:49:49.351Z,976.24
2019-01-17T18:50:49.334Z,976.33
2019-01-17T18:51:49.326Z,976.30
2019-01-17T18:52:49.318Z,976.37
2019-01-17T18:53:49.319Z,976.34
2019-01-17T18:54:49.296Z,976.35
2019-01-17T18:55:49.290Z,976.37
2019-01-17T18:56:49.275Z,976.43
2019-01-17T18:57:49.260Z,976.37
2019-01-17T18:58:49.265Z,976.34
2019-01-17T18:59:49.261Z,976.41
2019-01-17T19:00:49.235Z,976.53
2019-01-17T19:01:49.221Z,976.35
2019-01-17T19:02:49.213Z,976.48
2019-01-17T19:03:49.193Z,976.44
2019-01-17T19:04:49.193Z,976.43
2019-01-17T19:05:49.197Z,976.44
2019-01-17T19:06:49.167Z,976.47
2019-01-17T19:07:49.153Z,976.46
2019-01-17T19:08:49.139Z,976.46
2019-01-17T19:09:49.132Z,976.44
2019-01-17T19:10:49.134Z,976.46
2019-01-17T19:11:49.146Z,976.50
2019-01-17T19:12:49.103Z,976.46
2019-01-17T19:13:49.094Z,976.47
2019-01-17T19:14:49.078Z,976.43
2019-01-17T19:15:49.068Z,976.42
2019-01-17T19:16:49.069Z,976.51
2019-01-17T19:17:49.072Z,976.53
2019-01-17T19:18:49.048Z,976.52
2019-01-17T19:19:49.026Z,976.54
2019-01-17T19:20:49.371Z,976.50
2019-01-17T19:21:49.015Z,976.44
2019-01-17T19:22:48.998Z,976.48
2019-01-17T19:23:49.000Z,976.44
2019-01-17T19:24:48.991Z,976.49
2019-01-17T19:25:49.014Z,976.42
2019-01-17T19:26:48.958Z,976.50
2019-01-17T19:27:48.945Z,976.54
2019-01-17T19:28:48.937Z,976.52
2019-01-17T19:29:48.946Z,976.56
2019-01-17T19:30:48.936Z,976.56
2019-01-17T19:31:48.945Z,976.50
2019-01-17T19:32:48.888Z,976.61
2019-01-17T19:33:48.882Z,976.63
2019-01-17T19:34:48.885Z,976.58
2019-01-17T19:35:48.897Z,976.72
2019-01-17T19:36:48.843Z,976.69
2019-01-17T19:37:48.844Z,976.68
2019-01-17T19:38:48.850Z,976.64
2019-01-17T19:39:48.824Z,976.68
2019-01-17T19:40:48.837Z,976.75
2019-01-17T19:41:48.856Z,976.76
2019-01-17T19:42:48.807Z,976.77
2019-01-17T19:43:48.953Z,976.73
2019-01-17T19:44:48.788Z,976.70
2019-01-17T19:45:48.759Z,976.76
2019-01-17T19:46:49.241Z,976.72
2019-01-17T19:47:49.058Z,976.74
2019-01-17T19:48:48.753Z,976.75
2019-01-17T19:49:48.737Z,976.80
2019-01-17T19:50:48.871Z,976.75
2019-01-17T19:51:48.686Z,976.82
2019-01-17T19:52:48.714Z,976.85
2019-01-17T19:53:48.708Z,976.82
2019-01-17T19:54:48.657Z,976.80
2019-01-17T19:55:48.644Z,976.79
2019-01-17T19:56:48.721Z,976.76
2019-01-17T19:57:48.631Z,976.82
2019-01-17T19:58:48.666Z,976.81
2019-01-17T19:59:48.647Z,976.85
2019-01-17T20:00:48.612Z,976.79
2019-01-17T20:01:48.641Z,976.83
2019-01-17T20:02:48.577Z,976.80
2019-01-17T20:03:48.589Z,976.84
2019-01-17T20:04:48.612Z,976.82
2019-01-17T20:05:48.686Z,976.78
2019-01-17T20:06:48.565Z,976.84
2019-01-17T20:07:49.095Z,976.85
2019-01-17T20:08:48.513Z,976.87
2019-01-17T20:09:48.509Z,976.88
2019-01-17T20:10:48.493Z,976.93
2019-01-17T20:11:48.499Z,976.87
2019-01-17T20:12:48.479Z,976.85
2019-01-17T20:13:48.477Z,976.86
2019-01-17T20:14:48.461Z,976.87
2019-01-17T20:15:48.433Z,976.90
2019-01-17T20:16:48.561Z,976.91
2019-01-17T20:17:48.487Z,976.92
2019-01-17T20:18:48.445Z,976.94
2019-01-17T20:19:48.400Z,976.88
2019-01-17T20:20:48.400Z,976.96
2019-01-17T20:21:48.378Z,976.96
2019-01-17T20:22:48.364Z,976.96
2019-01-17T20:23:48.372Z,976.91
2019-01-17T20:24:48.354Z,976.91
2019-01-17T20:25:48.799Z,976.94
2019-01-17T20:26:48.342Z,976.92
2019-01-17T20:27:48.314Z,976.95
2019-01-17T20:28:48.303Z,976.97
2019-01-17T20:29:48.309Z,976.99
2019-01-17T20:30:48.290Z,976.95
2019-01-17T20:31:48.273Z,976.95
2019-01-17T20:32:48.258Z,976.93
2019-01-17T20:33:48.254Z,977.11
2019-01-17T20:34:48.248Z,977.01
2019-01-17T20:35:48.251Z,977.07
2019-01-17T20:36:48.223Z,977.06
2019-01-17T20:37:48.210Z,976.99
2019-01-17T20:38:48.200Z,976.97
2019-01-17T20:39:48.193Z,977.02
2019-01-17T20:40:48.172Z,977.04
2019-01-17T20:41:48.185Z,977.00
2019-01-17T20:42:48.163Z,977.02
2019-01-17T20:43:48.147Z,976.99
2019-01-17T20:44:48.131Z,977.06
2019-01-17T20:45:48.124Z,976.96
2019-01-17T20:46:48.116Z,976.98
2019-01-17T20:47:48.134Z,977.04
2019-01-17T20:48:48.102Z,976.91
2019-01-17T20:49:48.087Z,976.94
2019-01-17T20:50:48.077Z,977.02
2019-01-17T20:51:48.060Z,977.03
2019-01-17T20:52:48.050Z,977.08
2019-01-17T20:53:48.060Z,977.02
2019-01-17T20:54:48.031Z,977.01
2019-01-17T20:55:48.018Z,976.98
2019-01-17T20:56:48.008Z,976.95
2019-01-17T20:57:47.999Z,976.99
2019-01-17T20:58:47.993Z,976.97
2019-01-17T20:59:47.988Z,977.00
2019-01-17T21:00:47.964Z,976.98
2019-01-17T21:01:47.949Z,977.02
2019-01-17T21:02:47.947Z,977.01
2019-01-17T21:03:47.932Z,977.00
2019-01-17T21:04:47.926Z,977.02
2019-01-17T21:05:47.932Z,977.03
2019-01-17T21:06:47.919Z,976.97
2019-01-17T21:07:47.894Z,976.96
2019-01-17T21:08:47.878Z,976.93
2019-01-17T21:09:47.875Z,976.93
2019-01-17T21:10:47.865Z,976.95
2019-01-17T21:11:47.887Z,976.96
2019-01-17T21:12:47.836Z,977.00
2019-01-17T21:13:47.826Z,977.03
2019-01-17T21:14:47.814Z,977.03
2019-01-17T21:15:47.805Z,976.97
2019-01-17T21:16:47.804Z,977.04
2019-01-17T21:17:47.802Z,976.93
2019-01-17T21:18:47.817Z,977.01
2019-01-17T21:19:47.764Z,976.95
2019-01-17T21:20:47.980Z,977.04
2019-01-17T21:21:47.741Z,976.97
2019-01-17T21:22:47.735Z,976.92
2019-01-17T21:23:47.734Z,976.96
2019-01-17T21:24:47.705Z,976.92
2019-01-17T21:25:47.703Z,976.87
2019-01-17T21:26:47.705Z,976.96
2019-01-17T21:27:47.678Z,976.95
2019-01-17T21:28:49.130Z,976.91
2019-01-17T21:29:47.673Z,976.98
2019-01-17T21:30:47.644Z,976.88
2019-01-17T21:31:47.628Z,977.00
2019-01-17T21:32:47.702Z,976.93
2019-01-17T21:33:47.606Z,976.92
2019-01-17T21:34:47.612Z,976.98
2019-01-17T21:35:47.608Z,977.02
2019-01-17T21:36:47.577Z,976.99
2019-01-17T21:37:47.584Z,977.01
2019-01-17T21:38:47.565Z,976.99
2019-01-17T21:39:47.540Z,976.92
2019-01-17T21:40:47.534Z,976.99
2019-01-17T21:41:47.546Z,976.95
2019-01-17T21:42:47.515Z,977.00
2019-01-17T21:43:47.508Z,976.98
2019-01-17T21:44:47.492Z,977.00
2019-01-17T21:45:47.494Z,977.01
2019-01-17T21:46:47.470Z,977.01
2019-01-17T21:47:47.479Z,977.00
2019-01-17T21:48:47.450Z,977.04
2019-01-17T21:49:47.450Z,976.98
2019-01-17T21:50:47.433Z,977.05
2019-01-17T21:51:47.418Z,977.01
2019-01-17T21:52:47.410Z,977.12
2019-01-17T21:53:47.416Z,977.12
2019-01-17T21:54:47.387Z,977.08
2019-01-17T21:55:47.373Z,976.97
2019-01-17T21:56:47.367Z,977.04
2019-01-17T21:57:47.355Z,976.99
2019-01-17T21:58:47.343Z,977.06
2019-01-17T21:59:47.348Z,977.07
2019-01-17T22:00:47.323Z,977.03
2019-01-17T22:01:47.316Z,977.08
2019-01-17T22:02:47.317Z,977.10
2019-01-17T22:03:47.291Z,977.01
2019-01-17T22:04:47.278Z,977.13
2019-01-17T22:05:47.295Z,977.07
2019-01-17T22:06:47.259Z,977.05
2019-01-17T22:07:47.246Z,977.03
2019-01-17T22:08:47.236Z,977.05
2019-01-17T22:09:47.234Z,977.11
2019-01-17T22:10:47.218Z,977.00
2019-01-17T22:11:47.224Z,977.13
2019-01-17T22:12:47.203Z,977.10
2019-01-17T22:13:47.179Z,977.15
2019-01-17T22:14:47.178Z,977.14
2019-01-17T22:15:47.162Z,977.13
2019-01-17T22:16:47.150Z,977.19
2019-01-17T22:17:47.183Z,977.15
2019-01-17T22:18:47.137Z,977.16
2019-01-17T22:19:47.201Z,977.22
2019-01-17T22:20:47.111Z,977.34
2019-01-17T22:21:47.097Z,977.37
2019-01-17T22:22:47.081Z,977.57
2019-01-17T22:23:47.107Z,977.78
2019-01-17T22:24:47.065Z,977.73
2019-01-17T22:25:47.056Z,977.80
2019-01-17T22:26:47.046Z,977.94
2019-01-17T22:27:47.030Z,978.04
2019-01-17T22:28:47.024Z,978.06
2019-01-17T22:29:47.033Z,978.09
2019-01-17T22:30:47.003Z,978.12
2019-01-17T22:31:46.995Z,978.16
2019-01-17T22:32:46.982Z,978.25
2019-01-17T22:33:46.972Z,978.21
2019-01-17T22:34:46.961Z,978.20
2019-01-17T22:35:46.965Z,978.21
2019-01-17T22:36:46.936Z,978.24
2019-01-17T22:37:46.923Z,978.18
2019-01-17T22:38:46.916Z,978.33
2019-01-17T22:39:46.953Z,978.36
2019-01-17T22:40:46.909Z,978.35
2019-01-17T22:41:46.906Z,978.32
2019-01-17T22:42:46.881Z,978.34
2019-01-17T22:43:46.865Z,978.29
2019-01-17T22:44:46.854Z,978.26
2019-01-17T22:45:46.839Z,978.32
2019-01-17T22:46:46.830Z,978.33
2019-01-17T22:47:46.842Z,978.28
2019-01-17T22:48:46.811Z,978.25
2019-01-17T22:49:46.798Z,978.20
2019-01-17T22:50:46.785Z,978.13
2019-01-17T22:51:46.779Z,978.10
2019-01-17T22:52:46.774Z,978.00
2019-01-17T22:53:46.776Z,977.99
2019-01-17T22:54:46.749Z,978.00
2019-01-17T22:55:46.737Z,978.04
2019-01-17T22:56:46.727Z,978.08
2019-01-17T22:57:46.713Z,978.06
2019-01-17T22:58:46.705Z,978.16
2019-01-17T22:59:46.715Z,978.19
2019-01-17T23:00:46.686Z,978.13
2019-01-17T23:01:46.676Z,978.17
2019-01-17T23:02:46.659Z,978.17
2019-01-17T23:03:46.650Z,978.19
2019-01-17T23:04:46.637Z,978.18
2019-01-17T23:05:46.644Z,978.22
2019-01-17T23:06:46.612Z,978.22
2019-01-17T23:07:46.608Z,978.24
2019-01-17T23:08:46.592Z,978.24
2019-01-17T23:09:46.581Z,978.33
2019-01-17T23:10:46.576Z,978.29
2019-01-17T23:11:46.586Z,978.31
2019-01-17T23:12:46.560Z,978.35
2019-01-17T23:13:46.545Z,978.32
2019-01-17T23:14:46.530Z,978.40
2019-01-17T23:15:46.521Z,978.41
2019-01-17T23:16:46.520Z,978.49
2019-01-17T23:17:46.524Z,978.42
2019-01-17T23:18:46.483Z,978.48
2019-01-17T23:19:46.477Z,978.54
2019-01-17T23:20:46.474Z,978.44
2019-01-17T23:21:46.460Z,978.49
2019-01-17T23:22:46.447Z,978.50
2019-01-17T23:23:46.450Z,978.52
2019-01-17T23:24:46.430Z,978.46
2019-01-17T23:25:46.415Z,978.44
2019-01-17T23:26:46.397Z,978.43
2019-01-17T23:27:46.390Z,978.37
2019-01-17T23:28:46.390Z,978.38
2019-01-17T23:29:46.383Z,978.35
2019-01-17T23:30:46.364Z,978.37
2019-01-17T23:31:46.367Z,978.37
2019-01-17T23:32:46.341Z,978.41
2019-01-17T23:33:46.325Z,978.42
2019-01-17T23:34:46.319Z,978.45
2019-01-17T23:35:46.338Z,978.48
2019-01-17T23:36:48.842Z,978.53
2019-01-17T23:37:46.299Z,978.54
2019-01-17T23:38:46.284Z,978.63
2019-01-17T23:39:46.268Z,978.56
2019-01-17T23:40:46.255Z,978.57
2019-01-17T23:41:46.261Z,978.55
2019-01-17T23:42:46.232Z,978.48
2019-01-17T23:43:46.223Z,978.53
2019-01-17T23:44:46.213Z,978.57
2019-01-17T23:45:46.203Z,978.56
2019-01-17T23:46:46.188Z,978.55
2019-01-17T23:47:46.213Z,978.55
2019-01-17T23:48:46.168Z,978.55
2019-01-17T23:49:46.168Z,978.62
2019-01-17T23:50:46.155Z,978.65
2019-01-17T23:51:46.146Z,978.62
2019-01-17T23:52:46.126Z,978.64
2019-01-17T23:53:46.142Z,978.62
2019-01-17T23:54:46.101Z,978.65
2019-01-17T23:55:46.097Z,978.68
2019-01-17T23:56:46.095Z,978.69
2019-01-17T23:57:46.072Z,978.69
2019-01-17T23:58:46.060Z,978.65
2019-01-17T23:59:46.075Z,978.66
